createdAt,value
2024-02-06T04:53:23.149Z,96217.00
2024-02-06T04:54:53.655Z,96217.00
2024-02-06T04:56:53.192Z,96209.00
2024-02-06T04:57:26.456Z,96210.00
2024-02-06T05:18:18.555Z,96212.00
2024-02-06T05:18:44.814Z,96211.00
2024-02-06T05:19:44.764Z,96207.00
2024-02-06T05:20:44.870Z,96206.00
2024-02-06T05:21:45.418Z,96202.00
2024-02-06T05:22:45.153Z,96202.00
2024-02-06T05:23:45.315Z,96202.00
2024-02-06T05:24:45.068Z,96200.00
2024-02-06T05:38:03.488Z,96188.00
2024-02-06T05:38:32.573Z,96190.00
2024-02-06T05:39:32.480Z,96190.00
2024-02-06T05:40:32.666Z,96184.00
2024-02-06T05:41:32.503Z,96183.00
2024-02-06T05:42:32.546Z,96182.00
2024-02-06T05:43:33.363Z,96183.00
2024-02-06T05:51:26.570Z,96189.00
2024-02-06T05:51:58.593Z,96183.00
2024-02-06T05:52:58.576Z,96176.00
2024-02-06T05:53:59.671Z,96176.00
2024-02-06T05:55:01.406Z,96182.00
2024-02-06T05:56:00.340Z,96186.00
2024-02-06T05:57:00.615Z,96184.00
2024-02-06T05:58:01.045Z,96181.00
2024-02-06T05:59:00.971Z,96184.00
2024-02-06T06:00:00.271Z,96187.00
2024-02-06T06:01:00.749Z,96185.00
2024-02-06T06:12:06.815Z,96184.00
2024-02-06T06:12:37.959Z,96184.00
2024-02-06T06:13:38.055Z,96191.00
2024-02-06T06:14:37.887Z,96188.00
2024-02-06T06:15:38.177Z,96189.00
2024-02-06T06:16:38.011Z,96186.00
2024-02-06T06:17:38.001Z,96184.00
2024-02-06T06:18:38.065Z,96181.00
2024-02-06T06:19:38.449Z,96181.00
2024-02-06T06:20:38.641Z,96183.00
2024-02-06T06:21:42.214Z,96186.00
2024-02-06T06:22:38.911Z,96188.00
2024-02-06T06:23:38.432Z,96189.00
2024-02-06T06:24:38.472Z,96182.00
2024-02-06T06:57:46.538Z,96182.00
2024-02-06T06:58:08.180Z,96184.00
2024-02-06T06:59:05.914Z,96185.00
2024-02-06T07:00:04.074Z,96189.00
2024-02-06T07:01:05.840Z,96194.00
2024-02-06T07:10:05.357Z,96173.00
2024-02-06T07:10:34.082Z,96179.00
2024-02-06T07:19:39.527Z,96180.00
2024-02-06T09:31:17.591Z,96159.00
2024-02-06T09:32:16.912Z,96159.00
2024-02-06T09:33:16.999Z,96160.00
2024-02-06T09:34:17.008Z,96165.00
2024-02-06T09:35:16.971Z,96167.00
2024-02-06T09:36:17.888Z,96164.00
2024-02-06T09:37:16.954Z,96161.00
2024-02-06T09:38:16.935Z,96157.00
2024-02-06T09:39:16.960Z,96161.00
2024-02-06T09:40:16.952Z,96162.00
2024-02-06T09:41:16.921Z,96158.00
2024-02-06T09:42:18.014Z,96155.00
2024-02-06T09:43:16.986Z,96155.00
2024-02-06T09:44:16.965Z,96156.00
2024-02-06T09:45:16.881Z,96156.00
2024-02-06T09:46:16.937Z,96152.00
2024-02-06T09:47:17.458Z,96152.00
2024-02-06T09:48:16.984Z,96156.00
2024-02-06T09:49:17.021Z,96157.00
2024-02-06T09:50:17.033Z,96158.00
2024-02-06T09:51:16.955Z,96156.00
2024-02-06T09:52:16.985Z,96148.00
2024-02-06T09:53:16.996Z,96148.00
2024-02-06T09:54:17.149Z,96148.00
2024-02-06T09:55:17.091Z,96148.00
2024-02-06T09:56:17.063Z,96146.00
2024-02-06T09:57:17.064Z,96141.00
2024-02-06T09:58:17.152Z,96140.00
2024-02-06T09:59:17.113Z,96143.00
2024-02-06T10:00:17.154Z,96145.00
2024-02-06T10:01:17.286Z,96145.00
2024-02-06T10:02:17.351Z,96144.00
2024-02-06T10:03:17.318Z,96145.00
2024-02-06T10:04:17.536Z,96146.00
2024-02-06T10:05:17.444Z,96149.00
2024-02-06T10:06:17.502Z,96149.00
2024-02-06T10:07:17.516Z,96149.00
2024-02-06T10:08:17.554Z,96146.00
2024-02-06T10:09:17.609Z,96149.00
2024-02-06T10:10:17.750Z,96152.00
2024-02-06T10:11:17.768Z,96156.00
2024-02-06T10:12:17.823Z,96157.00
2024-02-06T10:13:17.886Z,96156.00
2024-02-06T10:14:17.905Z,96154.00
2024-02-06T10:15:17.973Z,96154.00
2024-02-06T10:16:18.000Z,96155.00
2024-02-06T10:17:18.058Z,96155.00
2024-02-06T10:18:18.138Z,96154.00
2024-02-06T10:19:18.114Z,96154.00
2024-02-06T10:20:18.135Z,96153.00
2024-02-06T10:21:18.189Z,96150.00
2024-02-06T10:22:18.326Z,96149.00
2024-02-06T10:23:18.406Z,96146.00
2024-02-06T10:24:18.420Z,96144.00
2024-02-06T10:25:18.553Z,96142.00
2024-02-06T10:26:18.570Z,96142.00
2024-02-06T10:27:18.601Z,96142.00
2024-02-06T10:28:18.689Z,96139.00
2024-02-06T10:29:18.857Z,96139.00
2024-02-06T10:30:18.736Z,96140.00
2024-02-06T10:31:18.789Z,96142.00
2024-02-06T10:32:19.694Z,96139.00
2024-02-06T10:33:18.950Z,96139.00
2024-02-06T10:34:18.965Z,96139.00
2024-02-06T10:35:18.988Z,96139.00
2024-02-06T10:36:18.967Z,96138.00
2024-02-06T10:37:19.020Z,96133.00
2024-02-06T10:38:19.029Z,96133.00
2024-02-06T10:39:19.035Z,96135.00
2024-02-06T10:40:19.050Z,96133.00
2024-02-06T10:41:26.221Z,96133.00
2024-02-06T10:42:53.537Z,96129.00
2024-02-06T10:44:19.162Z,96131.00
2024-02-06T10:45:19.968Z,96131.00
2024-02-06T10:46:19.934Z,96131.00
2024-02-06T10:47:19.156Z,96130.00
2024-02-06T10:48:19.263Z,96129.00
2024-02-06T10:49:19.197Z,96126.00
2024-02-06T10:50:19.279Z,96123.00
2024-02-06T10:51:19.126Z,96120.00
2024-02-06T10:52:19.159Z,96119.00
2024-02-06T10:53:19.132Z,96120.00
2024-02-06T10:54:19.132Z,96119.00
2024-02-06T10:55:19.162Z,96121.00
2024-02-06T10:56:19.161Z,96116.00
2024-02-06T10:57:19.327Z,96112.00
2024-02-06T10:58:19.172Z,96109.00
2024-02-06T10:59:19.128Z,96108.00
2024-02-06T11:00:19.276Z,96107.00
2024-02-06T11:01:19.254Z,96105.00
2024-02-06T11:02:19.318Z,96104.00
2024-02-06T11:03:19.146Z,96106.00
2024-02-06T11:04:19.204Z,96103.00
2024-02-06T11:05:19.227Z,96099.00
2024-02-06T11:06:19.247Z,96097.00
2024-02-06T11:07:19.204Z,96096.00
2024-02-06T11:08:19.168Z,96097.00
2024-02-06T11:09:19.221Z,96099.00
2024-02-06T11:10:19.199Z,96097.00
2024-02-06T11:11:19.178Z,96088.00
2024-02-06T11:12:30.788Z,96091.00
2024-02-06T11:13:20.588Z,96089.00
2024-02-06T11:14:19.651Z,96091.00
2024-02-06T11:15:19.194Z,96089.00
2024-02-06T11:16:19.253Z,96087.00
2024-02-06T11:17:19.213Z,96082.00
2024-02-06T11:18:19.538Z,96078.00
2024-02-06T11:19:19.491Z,96077.00
2024-02-06T11:20:19.306Z,96072.00
2024-02-06T11:21:19.237Z,96072.00
2024-02-06T11:22:19.220Z,96070.00
2024-02-06T11:23:19.203Z,96068.00
2024-02-06T11:24:19.225Z,96067.00
2024-02-06T11:25:19.265Z,96067.00
2024-02-06T11:26:19.215Z,96066.00
2024-02-06T11:27:19.235Z,96063.00
2024-02-06T11:28:19.287Z,96060.00
2024-02-06T11:29:19.240Z,96054.00
2024-02-06T11:30:19.221Z,96052.00
2024-02-06T11:31:19.282Z,96050.00
2024-02-06T11:32:19.266Z,96048.00
2024-02-06T11:33:19.408Z,96049.00
2024-02-06T11:34:19.541Z,96047.00
2024-02-06T11:35:19.515Z,96048.00
2024-02-06T11:36:19.434Z,96044.00
2024-02-06T11:37:19.677Z,96042.00
2024-02-06T11:38:19.502Z,96041.00
2024-02-06T11:39:22.850Z,96039.00
2024-02-06T11:40:19.654Z,96037.00
2024-02-06T11:41:20.200Z,96039.00
2024-02-06T11:42:19.546Z,96041.00
2024-02-06T11:43:19.553Z,96042.00
2024-02-06T11:44:19.638Z,96039.00
2024-02-06T11:45:20.570Z,96037.00
2024-02-06T11:46:19.549Z,96033.00
2024-02-06T11:47:19.542Z,96033.00
2024-02-06T11:48:19.664Z,96031.00
2024-02-06T11:49:19.645Z,96032.00
2024-02-06T11:50:19.564Z,96029.00
2024-02-06T11:51:19.555Z,96028.00
2024-02-06T11:52:19.593Z,96025.00
2024-02-06T11:53:19.564Z,96025.00
2024-02-06T11:54:19.557Z,96026.00
2024-02-06T11:55:19.597Z,96021.00
2024-02-06T11:56:19.567Z,96021.00
2024-02-06T11:57:19.566Z,96020.00
2024-02-06T11:58:19.577Z,96020.00
2024-02-06T11:59:19.590Z,96020.00
2024-02-06T12:00:19.552Z,96018.00
2024-02-06T12:01:19.782Z,96019.00
2024-02-06T12:02:19.713Z,96015.00
2024-02-06T12:03:19.590Z,96012.00
2024-02-06T12:04:19.603Z,96008.00
2024-02-06T12:05:19.645Z,96008.00
2024-02-06T12:06:19.670Z,96007.00
2024-02-06T12:07:20.537Z,96004.00
2024-02-06T12:08:19.647Z,96003.00
2024-02-06T12:09:19.731Z,96002.00
2024-02-06T12:10:19.585Z,96003.00
2024-02-06T12:11:19.573Z,96002.00
2024-02-06T12:12:19.595Z,96003.00
2024-02-06T12:13:19.616Z,96004.00
2024-02-06T12:14:19.598Z,96000.00
2024-02-06T12:15:19.700Z,95995.00
2024-02-06T12:16:19.627Z,95996.00
2024-02-06T12:17:19.620Z,95990.00
2024-02-06T12:18:19.802Z,95989.00
2024-02-06T12:19:19.711Z,95987.00
2024-02-06T12:20:20.299Z,95987.00
2024-02-06T12:21:19.696Z,95988.00
2024-02-06T12:22:19.794Z,95986.00
2024-02-06T12:23:19.759Z,95987.00
2024-02-06T12:24:19.761Z,95986.00
2024-02-06T12:25:21.803Z,95982.00
2024-02-06T12:26:19.799Z,95982.00
2024-02-06T12:27:19.885Z,95980.00
2024-02-06T12:28:19.962Z,95981.00
2024-02-06T12:29:19.790Z,95980.00
2024-02-06T12:30:19.803Z,95980.00
2024-02-06T12:31:19.859Z,95981.00
2024-02-06T12:32:19.792Z,95981.00
2024-02-06T12:33:20.632Z,95981.00
2024-02-06T12:34:19.926Z,95978.00
2024-02-06T12:35:19.899Z,95977.00
2024-02-06T12:36:19.981Z,95976.00
2024-02-06T12:37:20.007Z,95973.00
2024-02-06T12:38:19.880Z,95973.00
2024-02-06T12:39:19.894Z,95972.00
2024-02-06T12:40:20.393Z,95973.00
2024-02-06T12:41:19.811Z,95973.00
2024-02-06T12:42:19.846Z,95968.00
2024-02-06T12:43:19.852Z,95965.00
2024-02-06T12:44:21.555Z,95965.00
2024-02-06T12:45:19.821Z,95963.00
2024-02-06T12:46:19.860Z,95961.00
2024-02-06T12:47:19.824Z,95958.00
2024-02-06T12:48:19.843Z,95957.00
2024-02-06T12:49:19.910Z,95955.00
2024-02-06T12:50:19.915Z,95952.00
2024-02-06T12:51:19.831Z,95954.00
2024-02-06T12:52:19.988Z,95954.00
2024-02-06T12:53:19.824Z,95952.00
2024-02-06T12:54:19.828Z,95949.00
2024-02-06T12:55:19.871Z,95949.00
2024-02-06T12:56:20.642Z,95945.00
2024-02-06T12:57:19.821Z,95940.00
2024-02-06T12:58:19.884Z,95939.00
2024-02-06T12:59:27.989Z,95938.00
2024-02-06T13:00:20.827Z,95938.00
2024-02-06T13:01:19.940Z,95937.00
2024-02-06T13:02:19.900Z,95933.00
2024-02-06T13:03:20.484Z,95931.00
2024-02-06T13:04:19.909Z,95930.00
2024-02-06T13:05:19.970Z,95927.00
2024-02-06T13:06:19.998Z,95929.00
2024-02-06T13:07:19.966Z,95929.00
2024-02-06T13:08:19.879Z,95927.00
2024-02-06T13:09:19.900Z,95926.00
2024-02-06T13:10:20.516Z,95925.00
2024-02-06T13:11:19.875Z,95925.00
2024-02-06T13:12:19.842Z,95926.00
2024-02-06T13:13:19.963Z,95926.00
2024-02-06T13:14:19.934Z,95924.00
2024-02-06T13:15:19.985Z,95917.00
2024-02-06T13:16:20.099Z,95919.00
2024-02-06T13:17:20.341Z,95919.00
2024-02-06T13:18:20.231Z,95919.00
2024-02-06T13:19:20.287Z,95917.00
2024-02-06T13:20:20.361Z,95916.00
2024-02-06T13:21:21.174Z,95915.00
2024-02-06T13:22:20.289Z,95913.00
2024-02-06T13:23:20.339Z,95913.00
2024-02-06T13:24:20.390Z,95911.00
2024-02-06T13:25:21.180Z,95910.00
2024-02-06T13:26:20.508Z,95909.00
2024-02-06T13:27:20.624Z,95910.00
2024-02-06T13:28:20.630Z,95908.00
2024-02-06T13:29:20.699Z,95907.00
2024-02-06T13:30:20.794Z,95905.00
2024-02-06T13:31:27.706Z,95904.00
2024-02-06T13:32:21.863Z,95903.00
2024-02-06T13:33:20.846Z,95903.00
2024-02-06T13:34:20.895Z,95904.00
2024-02-06T13:35:20.897Z,95904.00
2024-02-06T13:36:20.842Z,95902.00
2024-02-06T13:37:20.868Z,95901.00
2024-02-06T13:38:20.815Z,95901.00
2024-02-06T13:39:20.889Z,95903.00
2024-02-06T13:40:20.837Z,95902.00
2024-02-06T13:41:20.816Z,95901.00
2024-02-06T13:42:20.821Z,95900.00
2024-02-06T13:43:20.840Z,95900.00
2024-02-06T13:44:20.830Z,95900.00
2024-02-06T13:45:20.846Z,95894.00
2024-02-06T13:46:20.907Z,95891.00
2024-02-06T13:47:20.864Z,95892.00
2024-02-06T13:48:20.949Z,95888.00
2024-02-06T13:49:21.037Z,95889.00
2024-02-06T13:50:21.038Z,95889.00
2024-02-06T13:51:21.029Z,95883.00
2024-02-06T13:52:21.105Z,95884.00
2024-02-06T13:53:21.136Z,95885.00
2024-02-06T13:54:21.193Z,95884.00
2024-02-06T13:55:21.283Z,95882.00
2024-02-06T13:56:21.318Z,95884.00
2024-02-06T13:57:21.341Z,95884.00
2024-02-06T13:58:21.437Z,95885.00
2024-02-06T13:59:22.400Z,95885.00
2024-02-06T14:00:21.361Z,95883.00
2024-02-06T14:01:21.457Z,95884.00
2024-02-06T14:02:21.460Z,95885.00
2024-02-06T14:03:21.512Z,95884.00
2024-02-06T14:04:21.573Z,95884.00
2024-02-06T14:05:23.412Z,95881.00
2024-02-06T14:06:21.614Z,95880.00
2024-02-06T14:07:21.596Z,95876.00
2024-02-06T14:08:21.592Z,95876.00
2024-02-06T14:09:21.568Z,95874.00
2024-02-06T14:10:21.559Z,95875.00
2024-02-06T14:11:22.595Z,95873.00
2024-02-06T14:12:26.201Z,95873.00
2024-02-06T14:13:22.607Z,95877.00
2024-02-06T14:14:21.606Z,95871.00
2024-02-06T14:15:21.558Z,95877.00
2024-02-06T14:16:21.589Z,95874.00
2024-02-06T14:17:22.916Z,95870.00
2024-02-06T14:18:21.632Z,95869.00
2024-02-06T14:19:21.638Z,95866.00
2024-02-06T14:20:21.809Z,95867.00
2024-02-06T14:21:21.735Z,95864.00
2024-02-06T14:22:21.922Z,95858.00
2024-02-06T14:23:23.058Z,95862.00
2024-02-06T14:24:21.934Z,95862.00
2024-02-06T14:25:21.952Z,95858.00
2024-02-06T14:26:25.060Z,95858.00
2024-02-06T14:27:21.943Z,95854.00
2024-02-06T14:28:21.949Z,95856.00
2024-02-06T14:29:23.463Z,95855.00
2024-02-06T14:30:21.937Z,95856.00
2024-02-06T14:31:21.953Z,95854.00
2024-02-06T14:32:21.994Z,95854.00
2024-02-06T14:33:22.075Z,95854.00
2024-02-06T14:34:22.074Z,95851.00
2024-02-06T14:35:23.897Z,95852.00
2024-02-06T14:36:21.974Z,95850.00
2024-02-06T14:37:22.157Z,95849.00
2024-02-06T14:38:21.936Z,95850.00
2024-02-06T14:39:22.000Z,95846.00
2024-02-06T14:40:21.950Z,95846.00
2024-02-06T14:41:21.951Z,95843.00
2024-02-06T14:42:21.938Z,95841.00
2024-02-06T14:43:22.203Z,95842.00
2024-02-06T14:44:27.195Z,95841.00
2024-02-06T14:45:23.015Z,95841.00
2024-02-06T14:46:22.018Z,95840.00
2024-02-06T14:47:22.005Z,95839.00
2024-02-06T14:48:22.020Z,95838.00
2024-02-06T14:49:22.031Z,95837.00
2024-02-06T14:50:22.072Z,95835.00
2024-02-06T14:51:24.343Z,95835.00
2024-02-06T14:52:22.012Z,95834.00
2024-02-06T14:53:22.006Z,95835.00
2024-02-06T14:54:21.993Z,95832.00
2024-02-06T14:55:22.014Z,95832.00
2024-02-06T14:56:22.002Z,95832.00
2024-02-06T14:57:24.465Z,95828.00
2024-02-06T14:58:22.039Z,95826.00
2024-02-06T14:59:22.022Z,95823.00
2024-02-06T15:00:22.042Z,95824.00
2024-02-06T15:01:22.114Z,95823.00
2024-02-06T15:02:22.046Z,95822.00
2024-02-06T15:03:22.077Z,95822.00
2024-02-06T15:04:22.071Z,95822.00
2024-02-06T15:05:27.555Z,95820.00
2024-02-06T15:06:23.054Z,95818.00
2024-02-06T15:07:22.129Z,95816.00
2024-02-06T15:08:22.108Z,95812.00
2024-02-06T15:09:22.047Z,95813.00
2024-02-06T15:10:22.068Z,95814.00
2024-02-06T15:11:22.085Z,95811.00
2024-02-06T15:12:22.048Z,95809.00
2024-02-06T15:13:22.044Z,95811.00
2024-02-06T15:14:22.053Z,95815.00
2024-02-06T15:15:22.032Z,95817.00
2024-02-06T15:16:22.120Z,95815.00
2024-02-06T15:17:22.102Z,95814.00
2024-02-06T15:18:22.308Z,95812.00
2024-02-06T15:19:22.267Z,95808.00
2024-02-06T15:20:22.506Z,95808.00
2024-02-06T15:21:22.548Z,95806.00
2024-02-06T15:22:22.517Z,95808.00
2024-02-06T15:23:22.400Z,95803.00
2024-02-06T15:24:22.454Z,95801.00
2024-02-06T15:25:22.567Z,95799.00
2024-02-06T15:26:26.364Z,95799.00
2024-02-06T15:27:22.594Z,95797.00
2024-02-06T15:28:22.704Z,95795.00
2024-02-06T15:29:22.603Z,95794.00
2024-02-06T15:30:22.587Z,95792.00
2024-02-06T15:31:22.620Z,95794.00
2024-02-06T15:32:22.681Z,95796.00
2024-02-06T15:33:22.822Z,95796.00
2024-02-06T15:34:22.700Z,95793.00
2024-02-06T15:35:22.642Z,95793.00
2024-02-06T15:36:22.633Z,95792.00
2024-02-06T15:37:22.634Z,95793.00
2024-02-06T15:38:22.602Z,95790.00
2024-02-06T15:39:22.611Z,95792.00
2024-02-06T15:40:22.667Z,95792.00
2024-02-06T15:41:22.657Z,95792.00
2024-02-06T15:42:22.633Z,95794.00
2024-02-06T15:43:22.698Z,95793.00
2024-02-06T15:44:22.622Z,95793.00
2024-02-06T15:45:22.616Z,95790.00
2024-02-06T15:46:22.657Z,95792.00
2024-02-06T15:47:22.639Z,95791.00
2024-02-06T15:48:22.725Z,95791.00
2024-02-06T15:49:22.932Z,95791.00
2024-02-06T15:50:22.838Z,95790.00
2024-02-06T15:51:28.674Z,95794.00
2024-02-06T15:52:22.661Z,95791.00
2024-02-06T15:53:22.667Z,95793.00
2024-02-06T15:54:22.633Z,95792.00
2024-02-06T15:55:22.909Z,95791.00
2024-02-06T15:56:22.639Z,95793.00
2024-02-06T15:57:23.025Z,95793.00
2024-02-06T15:58:22.668Z,95796.00
2024-02-06T15:59:22.702Z,95796.00
2024-02-06T16:00:22.651Z,95796.00
2024-02-06T16:01:22.751Z,95802.00
2024-02-06T16:02:22.715Z,95801.00
2024-02-06T16:03:22.634Z,95799.00
2024-02-06T16:04:22.821Z,95801.00
2024-02-06T16:05:22.736Z,95800.00
2024-02-06T16:06:22.651Z,95800.00
2024-02-06T16:07:22.696Z,95802.00
2024-02-06T16:08:22.651Z,95804.00
2024-02-06T16:09:22.648Z,95804.00
2024-02-06T16:10:22.727Z,95805.00
2024-02-06T16:11:22.690Z,95805.00
2024-02-06T16:12:26.254Z,95804.00
2024-02-06T16:13:24.448Z,95805.00
2024-02-06T16:14:22.693Z,95800.00
2024-02-06T16:15:22.744Z,95798.00
2024-02-06T16:16:22.700Z,95799.00
2024-02-06T16:17:22.662Z,95797.00
2024-02-06T16:18:22.675Z,95796.00
2024-02-06T16:19:30.522Z,95797.00
2024-02-06T16:20:23.851Z,95800.00
2024-02-06T16:21:22.703Z,95800.00
2024-02-06T16:22:22.720Z,95801.00
2024-02-06T16:23:22.713Z,95800.00
2024-02-06T16:24:22.707Z,95801.00
2024-02-06T16:25:25.751Z,95802.00
2024-02-06T16:26:22.732Z,95804.00
2024-02-06T16:27:22.705Z,95808.00
2024-02-06T16:28:22.787Z,95808.00
2024-02-06T16:29:22.697Z,95807.00
2024-02-06T16:30:22.719Z,95808.00
2024-02-06T16:31:22.756Z,95812.00
2024-02-06T16:32:22.705Z,95812.00
2024-02-06T16:33:22.819Z,95814.00
2024-02-06T16:35:22.776Z,95818.00
2024-02-06T16:36:22.786Z,95816.00
2024-02-06T16:37:22.745Z,95816.00
2024-02-06T16:38:22.714Z,95816.00
2024-02-06T16:39:23.021Z,95816.00
2024-02-06T16:40:22.850Z,95813.00
2024-02-06T16:41:22.736Z,95813.00
2024-02-06T16:42:22.737Z,95812.00
2024-02-06T16:43:22.765Z,95811.00
2024-02-06T16:44:22.754Z,95811.00
2024-02-06T16:45:22.748Z,95811.00
2024-02-06T16:46:22.778Z,95812.00
2024-02-06T16:47:22.748Z,95816.00
2024-02-06T16:48:22.840Z,95813.00
2024-02-06T16:49:22.803Z,95816.00
2024-02-06T16:50:22.908Z,95814.00
2024-02-06T16:51:22.757Z,95817.00
2024-02-06T16:52:22.838Z,95818.00
2024-02-06T16:53:22.735Z,95818.00
2024-02-06T16:54:22.745Z,95820.00
2024-02-06T16:55:24.073Z,95824.00
2024-02-06T16:56:22.752Z,95822.00
2024-02-06T16:57:22.747Z,95820.00
2024-02-06T16:58:22.825Z,95822.00
2024-02-06T16:59:22.753Z,95821.00
2024-02-06T17:00:22.779Z,95819.00
2024-02-06T17:01:23.646Z,95821.00
2024-02-06T17:02:22.880Z,95825.00
2024-02-06T17:03:22.785Z,95822.00
2024-02-06T17:04:22.852Z,95826.00
2024-02-06T17:05:23.019Z,95823.00
2024-02-06T17:07:22.955Z,95825.00
2024-02-06T17:08:22.767Z,95822.00
2024-02-06T17:09:22.791Z,95822.00
2024-02-06T17:10:22.970Z,95820.00
2024-02-06T17:11:22.937Z,95823.00
2024-02-06T17:12:22.848Z,95821.00
2024-02-06T17:13:22.944Z,95821.00
2024-02-06T17:14:22.957Z,95817.00
2024-02-06T17:15:22.981Z,95818.00
2024-02-06T17:16:23.044Z,95820.00
2024-02-06T17:17:23.082Z,95821.00
2024-02-06T17:18:23.089Z,95824.00
2024-02-06T17:19:23.165Z,95827.00
2024-02-06T17:20:23.422Z,95826.00
2024-02-06T17:21:23.354Z,95824.00
2024-02-06T17:22:23.403Z,95826.00
2024-02-06T17:23:23.397Z,95826.00
2024-02-06T17:24:23.454Z,95826.00
2024-02-06T17:25:23.581Z,95828.00
2024-02-06T17:26:23.576Z,95825.00
2024-02-06T17:27:23.564Z,95826.00
2024-02-06T17:28:23.648Z,95827.00
2024-02-06T17:29:23.608Z,95826.00
2024-02-06T17:30:23.691Z,95823.00
2024-02-06T17:31:23.687Z,95826.00
2024-02-06T17:32:23.706Z,95825.00
2024-02-06T17:33:23.869Z,95826.00
2024-02-06T17:34:23.954Z,95825.00
2024-02-06T17:35:23.986Z,95827.00
2024-02-06T17:36:23.977Z,95827.00
2024-02-06T17:37:24.011Z,95826.00
2024-02-06T17:38:24.057Z,95826.00
2024-02-06T17:39:24.121Z,95828.00
2024-02-06T17:40:24.154Z,95828.00
2024-02-06T17:41:24.195Z,95830.00
2024-02-06T17:42:24.233Z,95827.00
2024-02-06T17:43:24.234Z,95825.00
2024-02-06T17:44:24.347Z,95826.00
2024-02-06T17:45:24.298Z,95826.00
2024-02-06T17:46:24.363Z,95827.00
2024-02-06T17:47:24.346Z,95826.00
2024-02-06T17:48:24.384Z,95828.00
2024-02-06T17:49:24.432Z,95827.00
2024-02-06T17:50:24.586Z,95825.00
2024-02-06T17:51:24.443Z,95827.00
2024-02-06T17:52:24.533Z,95826.00
2024-02-06T17:53:24.569Z,95827.00
2024-02-06T17:54:24.628Z,95830.00
2024-02-06T17:55:24.708Z,95832.00
2024-02-06T17:56:24.783Z,95831.00
2024-02-06T17:57:24.734Z,95831.00
2024-02-06T17:58:24.869Z,95832.00
2024-02-06T17:59:24.812Z,95831.00
2024-02-06T18:00:24.804Z,95831.00
2024-02-06T18:01:24.979Z,95832.00
2024-02-06T18:02:34.691Z,95835.00
2024-02-06T18:03:26.013Z,95831.00
2024-02-06T18:04:25.073Z,95836.00
2024-02-06T18:05:24.936Z,95839.00
2024-02-06T18:06:24.887Z,95836.00
2024-02-06T18:07:24.938Z,95835.00
2024-02-06T18:08:25.025Z,95837.00
2024-02-06T18:09:24.909Z,95838.00
2024-02-06T18:10:24.941Z,95839.00
2024-02-06T18:11:24.884Z,95842.00
2024-02-06T18:12:24.938Z,95843.00
2024-02-06T18:13:24.934Z,95846.00
2024-02-06T18:14:24.921Z,95847.00
2024-02-06T18:15:24.929Z,95854.00
2024-02-06T18:16:24.910Z,95853.00
2024-02-06T18:17:24.943Z,95852.00
2024-02-06T18:18:25.051Z,95852.00
2024-02-06T18:19:25.223Z,95850.00
2024-02-06T18:20:25.227Z,95849.00
2024-02-06T18:21:25.170Z,95850.00
2024-02-06T18:22:25.248Z,95849.00
2024-02-06T18:23:25.294Z,95850.00
2024-02-06T18:24:25.285Z,95850.00
2024-02-06T18:25:25.377Z,95848.00
2024-02-06T18:26:25.385Z,95848.00
2024-02-06T18:27:25.422Z,95846.00
2024-02-06T18:28:25.457Z,95845.00
2024-02-06T18:29:25.459Z,95849.00
2024-02-06T18:30:25.548Z,95848.00
2024-02-06T18:31:25.618Z,95849.00
2024-02-06T18:32:25.651Z,95851.00
2024-02-06T18:33:25.767Z,95848.00
2024-02-06T18:34:25.906Z,95848.00
2024-02-06T18:35:25.792Z,95846.00
2024-02-06T18:36:25.833Z,95846.00
2024-02-06T18:37:26.001Z,95845.00
2024-02-06T18:38:25.940Z,95845.00
2024-02-06T18:39:25.991Z,95847.00
2024-02-06T18:40:26.121Z,95843.00
2024-02-06T18:41:26.158Z,95843.00
2024-02-06T18:42:26.224Z,95840.00
2024-02-06T18:43:26.320Z,95840.00
2024-02-06T18:44:26.350Z,95836.00
2024-02-06T18:45:26.400Z,95839.00
2024-02-06T18:46:26.482Z,95843.00
2024-02-06T18:47:26.560Z,95843.00
2024-02-06T18:48:26.636Z,95843.00
2024-02-06T18:49:26.785Z,95846.00
2024-02-06T18:50:26.911Z,95843.00
2024-02-06T18:51:26.807Z,95844.00
2024-02-06T18:52:26.882Z,95841.00
2024-02-06T18:53:26.801Z,95842.00
2024-02-06T18:54:26.854Z,95843.00
2024-02-06T18:55:26.890Z,95846.00
2024-02-06T18:56:26.921Z,95845.00
2024-02-06T18:57:26.963Z,95845.00
2024-02-06T18:58:27.180Z,95845.00
2024-02-06T18:59:27.021Z,95847.00
2024-02-06T19:00:27.098Z,95848.00
2024-02-06T19:01:27.173Z,95852.00
2024-02-06T19:02:27.277Z,95852.00
2024-02-06T19:03:27.279Z,95852.00
2024-02-06T19:04:27.402Z,95848.00
2024-02-06T19:05:27.524Z,95850.00
2024-02-06T19:06:27.430Z,95850.00
2024-02-06T19:07:27.464Z,95849.00
2024-02-06T19:08:27.477Z,95848.00
2024-02-06T19:09:27.555Z,95851.00
2024-02-06T19:10:27.583Z,95852.00
2024-02-06T19:11:27.580Z,95853.00
2024-02-06T19:12:27.623Z,95850.00
2024-02-06T19:13:27.700Z,95844.00
2024-02-06T19:14:27.661Z,95842.00
2024-02-06T19:15:27.690Z,95843.00
2024-02-06T19:16:27.768Z,95846.00
2024-02-06T19:17:27.776Z,95848.00
2024-02-06T19:18:27.946Z,95851.00
2024-02-06T19:19:28.018Z,95847.00
2024-02-06T19:20:27.987Z,95847.00
2024-02-06T19:21:27.932Z,95850.00
2024-02-06T19:22:27.988Z,95852.00
2024-02-06T19:23:27.982Z,95852.00
2024-02-06T19:24:28.009Z,95850.00
2024-02-06T19:25:28.100Z,95851.00
2024-02-06T19:26:28.105Z,95846.00
2024-02-06T19:27:28.111Z,95847.00
2024-02-06T19:28:28.107Z,95844.00
2024-02-06T19:29:28.128Z,95843.00
2024-02-06T19:30:28.150Z,95843.00
2024-02-06T19:31:28.196Z,95846.00
2024-02-06T19:32:28.263Z,95849.00
2024-02-06T19:33:28.228Z,95847.00
2024-02-06T19:34:28.332Z,95847.00
2024-02-06T19:35:28.284Z,95847.00
2024-02-06T19:36:28.258Z,95847.00
2024-02-06T19:37:28.484Z,95847.00
2024-02-06T19:38:28.372Z,95848.00
2024-02-06T19:39:28.433Z,95850.00
2024-02-06T19:40:28.489Z,95854.00
2024-02-06T19:41:28.503Z,95853.00
2024-02-06T19:42:28.565Z,95852.00
2024-02-06T19:43:28.676Z,95852.00
2024-02-06T19:44:28.661Z,95851.00
2024-02-06T19:45:28.694Z,95853.00
2024-02-06T19:46:28.785Z,95854.00
2024-02-06T19:47:28.865Z,95855.00
2024-02-06T19:48:28.925Z,95857.00
2024-02-06T19:49:29.151Z,95855.00
2024-02-06T19:50:29.092Z,95853.00
2024-02-06T19:51:29.111Z,95853.00
2024-02-06T19:52:28.999Z,95853.00
2024-02-06T19:53:29.023Z,95854.00
2024-02-06T19:54:29.099Z,95859.00
2024-02-06T19:55:29.253Z,95863.00
2024-02-06T19:56:29.179Z,95860.00
2024-02-06T19:57:29.225Z,95861.00
2024-02-06T19:58:29.272Z,95863.00
2024-02-06T19:59:29.249Z,95863.00
2024-02-06T20:00:29.292Z,95867.00
2024-02-06T20:01:29.551Z,95864.00
2024-02-06T20:02:29.687Z,95861.00
2024-02-06T20:03:29.434Z,95859.00
2024-02-06T20:04:29.658Z,95858.00
2024-02-06T20:05:29.606Z,95860.00
2024-02-06T20:06:29.519Z,95862.00
2024-02-06T20:07:29.604Z,95864.00
2024-02-06T20:08:29.787Z,95866.00
2024-02-06T20:09:29.610Z,95867.00
2024-02-06T20:10:29.601Z,95868.00
2024-02-06T20:11:29.675Z,95866.00
2024-02-06T20:12:29.726Z,95863.00
2024-02-06T20:13:29.762Z,95864.00
2024-02-06T20:14:29.911Z,95862.00
2024-02-06T20:15:29.877Z,95864.00
2024-02-06T20:16:29.938Z,95865.00
2024-02-06T20:17:29.939Z,95863.00
2024-02-06T20:18:30.092Z,95859.00
2024-02-06T20:19:30.291Z,95860.00
2024-02-06T20:20:30.055Z,95859.00
2024-02-06T20:21:30.269Z,95861.00
2024-02-06T20:22:30.144Z,95867.00
2024-02-06T20:23:30.262Z,95868.00
2024-02-06T20:24:30.158Z,95868.00
2024-02-06T20:25:30.224Z,95865.00
2024-02-06T20:26:30.206Z,95863.00